Time;durP1;ratioP1;P1;durP2;ratioP2;P2;SDS_P1;SDS_P2;PMS_P1;PMS_P2;Temp;Humidity;BMP_temperature;BMP_pressure;BME280_temperature;BME280_humidity;BME280_pressure;Samples;Min_cycle;Max_cycle;Signal;HPM_P1;HPM_P2
2021/01/21 00:02:20;;;;;;;4.78;3.80;;;4.40;99.90;;;;;;5080475;28;20386;-73
2021/01/21 00:04:46;;;;;;;4.70;3.85;;;4.40;99.90;;;;;;5085640;28;20411;-74
2021/01/21 00:07:11;;;;;;;5.28;3.90;;;;;;;;;;5079451;28;20388;-74
2021/01/21 00:09:37;;;;;;;4.53;3.97;;;;;;;;;;5084573;28;20443;-74
2021/01/21 00:12:04;;;;;;;5.60;4.03;;;;;;;;;;5083740;28;20385;-74
2021/01/21 00:14:29;;;;;;;5.68;4.20;;;4.40;99.90;;;;;;5081159;28;20920;-73
2021/01/21 00:16:55;;;;;;;5.67;3.93;;;4.40;99.90;;;;;;5078533;28;20482;-74
2021/01/21 00:19:20;;;;;;;6.27;4.33;;;4.40;99.90;;;;;;5082500;28;20443;-73
2021/01/21 00:21:46;;;;;;;5.13;4.10;;;;;;;;;;5082210;28;20878;-73
2021/01/21 00:24:12;;;;;;;5.85;4.20;;;4.50;99.90;;;;;;5082069;28;20489;-74
2021/01/21 00:26:38;;;;;;;5.53;4.20;;;;;;;;;;5082273;28;20396;-73
2021/01/21 00:29:03;;;;;;;5.57;4.30;;;4.60;99.90;;;;;;5082133;28;20410;-73
2021/01/21 00:31:29;;;;;;;6.18;4.30;;;4.50;99.90;;;;;;5080119;28;20411;-74
2021/01/21 00:33:55;;;;;;;6.25;4.47;;;;;;;;;;5082125;28;20389;-74
2021/01/21 00:36:21;;;;;;;6.60;5.00;;;;;;;;;;5079006;28;20388;-74
2021/01/21 00:38:47;;;;;;;6.03;4.90;;;;;;;;;;5085907;28;20388;-73
2021/01/21 00:41:12;;;;;;;6.38;4.85;;;;;;;;;;5078374;28;20417;-74
2021/01/21 00:43:38;;;;;;;5.65;4.53;;;;;;;;;;5084472;28;20410;-74
2021/01/21 00:46:04;;;;;;;6.17;4.67;;;;;;;;;;5084441;28;20452;-74
2021/01/21 00:48:30;;;;;;;6.57;4.78;;;4.50;99.90;;;;;;5080465;28;20378;-73
2021/01/21 00:50:56;;;;;;;5.18;4.35;;;;;;;;;;5081001;28;20382;-73
2021/01/21 00:53:21;;;;;;;5.38;4.75;;;4.40;99.90;;;;;;5081579;28;20390;-74
2021/01/21 00:55:47;;;;;;;6.13;4.50;;;;;;;;;;5079243;28;20393;-73
2021/01/21 00:58:13;;;;;;;5.03;4.23;;;;;;;;;;5081691;28;20382;-74
2021/01/21 01:00:39;;;;;;;6.03;4.40;;;4.30;99.90;;;;;;5081043;28;20375;-73
2021/01/21 01:03:07;;;;;;;6.05;4.60;;;4.40;99.90;;;;;;5081470;28;20840;-73
2021/01/21 01:05:34;;;;;;;6.63;4.60;;;4.40;99.90;;;;;;5080055;28;20458;-74
2021/01/21 01:07:59;;;;;;;6.80;5.00;;;4.50;99.90;;;;;;5080266;28;20386;-73
2021/01/21 01:10:25;;;;;;;5.38;4.65;;;;;;;;;;5078855;28;20380;-75
2021/01/21 01:12:52;;;;;;;6.25;4.63;;;;;;;;;;5084139;28;20741;-74
2021/01/21 01:15:24;;;;;;;6.70;4.80;;;4.40;99.90;;;;;;5077821;28;20862;-73
2021/01/21 01:17:49;;;;;;;5.40;4.67;;;4.30;99.90;;;;;;5075565;28;20478;-74
2021/01/21 01:20:15;;;;;;;5.70;4.20;;;;;;;;;;5085397;28;20457;-75
2021/01/21 01:22:41;;;;;;;5.85;4.63;;;;;;;;;;5078109;28;20400;-73
2021/01/21 01:25:07;;;;;;;4.75;4.20;;;4.50;99.90;;;;;;5081835;28;20404;-73
2021/01/21 01:27:33;;;;;;;5.90;4.40;;;4.40;99.90;;;;;;5081248;28;20381;-73
2021/01/21 01:29:59;;;;;;;6.20;4.40;;;;;;;;;;5079311;28;20749;-73
2021/01/21 01:32:24;;;;;;;6.53;4.53;;;4.40;99.90;;;;;;5080648;28;20370;-74
2021/01/21 01:34:50;;;;;;;5.93;4.45;;;4.20;99.90;;;;;;5081127;28;20777;-74
2021/01/21 01:37:15;;;;;;;5.63;4.50;;;4.20;99.90;;;;;;5080608;28;20382;-73
2021/01/21 01:39:41;;;;;;;5.97;4.78;;;3.60;99.90;;;;;;5080413;28;20382;-72
2021/01/21 01:42:10;;;;;;;5.60;4.80;;;4.20;99.90;;;;;;5080013;28;20375;-73
2021/01/21 01:44:37;;;;;;;6.00;4.70;;;4.40;99.90;;;;;;5079466;28;20489;-73
2021/01/21 01:47:03;;;;;;;7.88;5.25;;;4.30;99.90;;;;;;5083064;28;20445;-73
2021/01/21 01:49:28;;;;;;;5.90;4.60;;;4.30;99.90;;;;;;5078649;28;20383;-73
2021/01/21 01:51:54;;;;;;;6.03;4.77;;;4.30;99.90;;;;;;5082984;28;20420;-73
2021/01/21 01:54:20;;;;;;;6.07;4.60;;;4.20;99.90;;;;;;5075866;28;20395;-73
2021/01/21 01:56:46;;;;;;;6.30;4.90;;;;;;;;;;5071888;28;20407;-73
2021/01/21 01:59:12;;;;;;;5.72;4.68;;;;;;;;;;5076940;28;20387;-75
2021/01/21 02:01:39;;;;;;;6.78;4.82;;;;;;;;;;5080894;28;20915;-73
2021/01/21 02:04:05;;;;;;;5.10;4.60;;;;;;;;;;5081984;28;20402;-74
2021/01/21 02:06:30;;;;;;;5.72;4.72;;;4.60;99.90;;;;;;5078861;28;20381;-74
2021/01/21 02:08:56;;;;;;;5.80;4.53;;;;;;;;;;5080047;28;20894;-74
2021/01/21 02:11:34;;;;;;;6.00;4.78;;;4.10;99.90;;;;;;5079360;28;20464;-73
2021/01/21 02:14:25;;;;;;;5.53;4.70;;;4.00;99.90;;;;;;5080311;28;20378;-73
2021/01/21 02:16:57;;;;;;;5.07;4.38;;;;;;;;;;5074933;28;20434;-74
2021/01/21 02:19:56;;;;;;;5.33;4.60;;;4.00;99.90;;;;;;5079799;28;20374;-74
2021/01/21 02:23:19;;;;;;;6.57;4.60;;;4.30;99.90;;;;;;5081633;28;20381;-73
2021/01/21 02:25:51;;;;;;;5.13;4.57;;;;;;;;;;5018818;28;20399;-73
2021/01/21 02:28:48;;;;;;;6.68;5.20;;;4.50;99.90;;;;;;5010438;28;20391;-73
2021/01/21 02:31:38;;;;;;;6.07;4.70;;;4.10;99.90;;;;;;5054741;28;20384;-73
2021/01/21 02:34:06;;;;;;;6.57;5.03;;;4.10;99.90;;;;;;5071251;28;20425;-73
2021/01/21 02:36:41;;;;;;;5.88;4.97;;;4.00;99.90;;;;;;5078231;28;20380;-73
2021/01/21 02:39:10;;;;;;;5.93;4.90;;;;;;;;;;5080415;28;20428;-73
2021/01/21 02:41:35;;;;;;;6.65;5.03;;;4.40;99.90;;;;;;5078669;28;20937;-73
2021/01/21 02:44:02;;;;;;;6.43;4.93;;;;;;;;;;5079258;28;20495;-73
2021/01/21 02:46:27;;;;;;;5.60;4.97;;;4.00;99.90;;;;;;5084265;28;20863;-73
2021/01/21 02:48:54;;;;;;;7.07;5.50;;;4.20;99.90;;;;;;5076404;28;20438;-75
2021/01/21 02:51:41;;;;;;;7.65;5.63;;;4.10;99.90;;;;;;5082944;28;20378;-74
2021/01/21 02:54:12;;;;;;;8.57;5.82;;;4.50;99.90;;;;;;5076330;28;20428;-73
2021/01/21 02:56:42;;;;;;;6.72;5.53;;;4.00;99.90;;;;;;5081572;28;20911;-74
2021/01/21 02:59:12;;;;;;;8.20;5.80;;;;;;;;;;5082095;28;20519;-73
2021/01/21 03:01:38;;;;;;;8.25;5.60;;;;;;;;;;5076854;28;21009;-75
2021/01/21 03:04:04;;;;;;;7.50;5.60;;;;;;;;;;5080307;28;20492;-72
2021/01/21 03:06:33;;;;;;;7.95;6.15;;;;;;;;;;5079399;28;20385;-74
2021/01/21 03:09:01;;;;;;;8.00;6.18;;;4.10;99.90;;;;;;5079725;28;20370;-74
2021/01/21 03:11:27;;;;;;;7.82;6.10;;;;;;;;;;5078341;28;20382;-74
2021/01/21 03:13:53;;;;;;;8.77;6.07;;;;;;;;;;5079976;28;20480;-72
2021/01/21 03:16:19;;;;;;;7.30;5.85;;;4.20;99.90;;;;;;5078262;28;20870;-74
2021/01/21 03:18:45;;;;;;;7.50;5.70;;;4.20;99.90;;;;;;5083655;28;20460;-73
2021/01/21 03:21:10;;;;;;;9.98;6.13;;;4.70;99.90;;;;;;5081422;28;20847;-73
2021/01/21 03:23:42;;;;;;;9.30;6.10;;;4.30;99.90;;;;;;5082166;28;20438;-73
2021/01/21 03:26:08;;;;;;;8.20;6.38;;;;;;;;;;5085380;28;20378;-73
2021/01/21 03:28:34;;;;;;;7.80;6.20;;;4.30;99.90;;;;;;5081691;28;20873;-72
2021/01/21 03:30:59;;;;;;;6.68;5.47;;;3.90;99.90;;;;;;5084042;28;20518;-73
2021/01/21 03:33:25;;;;;;;6.10;5.50;;;;;;;;;;5088070;28;20413;-73
2021/01/21 03:35:51;;;;;;;7.95;5.60;;;4.40;99.90;;;;;;5079673;28;20390;-74
2021/01/21 03:38:16;;;;;;;8.03;6.30;;;4.40;99.90;;;;;;5086644;28;20476;-74
2021/01/21 03:40:42;;;;;;;6.70;5.32;;;4.30;99.90;;;;;;5079972;28;20384;-72
2021/01/21 03:43:08;;;;;;;7.10;5.38;;;;;;;;;;5083715;28;20847;-73
2021/01/21 03:45:33;;;;;;;6.63;5.10;;;4.50;99.90;;;;;;5083077;28;20455;-73
2021/01/21 03:47:59;;;;;;;5.93;5.10;;;;;;;;;;5083125;28;20374;-73
2021/01/21 03:50:25;;;;;;;5.85;4.93;;;4.90;99.90;;;;;;5081232;28;20370;-73
2021/01/21 03:52:50;;;;;;;5.88;4.95;;;4.50;99.90;;;;;;5082803;28;20772;-73
2021/01/21 03:55:16;;;;;;;6.47;5.00;;;;;;;;;;5080455;28;20388;-73
2021/01/21 03:57:42;;;;;;;6.35;4.60;;;;;;;;;;5082350;28;20377;-74
2021/01/21 04:00:08;;;;;;;5.37;4.00;;;4.70;99.90;;;;;;5083700;28;20454;-72
2021/01/21 04:02:34;;;;;;;7.32;4.55;;;;;;;;;;5080960;28;20486;-73
2021/01/21 04:05:00;;;;;;;5.25;4.13;;;4.70;99.90;;;;;;5083326;28;20499;-73
2021/01/21 04:07:26;;;;;;;5.03;4.07;;;;;;;;;;5080152;28;20421;-74
2021/01/21 04:09:54;;;;;;;4.82;4.25;;;;;;;;;;5083692;28;20376;-74
2021/01/21 04:12:20;;;;;;;4.93;4.20;;;;;;;;;;5086356;28;20382;-75
2021/01/21 04:14:46;;;;;;;5.38;4.35;;;4.80;99.90;;;;;;5078614;28;20418;-74
2021/01/21 04:17:12;;;;;;;5.30;3.90;;;;;;;;;;5080936;28;20410;-74
2021/01/21 04:19:37;;;;;;;5.82;4.10;;;4.90;99.90;;;;;;5080036;28;20422;-73
2021/01/21 04:22:03;;;;;;;5.50;4.10;;;4.90;99.90;;;;;;5081965;28;20386;-73
2021/01/21 04:24:29;;;;;;;4.57;3.50;;;;;;;;;;5081325;28;20398;-72
2021/01/21 04:26:55;;;;;;;4.97;3.88;;;4.90;99.90;;;;;;5082278;28;20377;-74
2021/01/21 04:29:21;;;;;;;4.55;3.80;;;;;;;;;;5079815;28;20375;-73
2021/01/21 04:31:46;;;;;;;4.80;3.38;;;4.90;99.90;;;;;;5082250;28;20410;-73
2021/01/21 04:34:12;;;;;;;4.67;3.60;;;;;;;;;;5080109;28;20956;-74
2021/01/21 04:36:38;;;;;;;5.78;3.72;;;5.00;99.90;;;;;;5081461;28;20384;-75
2021/01/21 04:39:04;;;;;;;5.10;3.65;;;5.40;99.90;;;;;;5083505;28;20464;-73
2021/01/21 04:41:30;;;;;;;4.60;3.88;;;;;;;;;;5079754;28;20380;-73
2021/01/21 04:43:55;;;;;;;5.22;3.33;;;5.10;99.90;;;;;;5082699;28;20408;-73
2021/01/21 04:46:21;;;;;;;4.03;3.20;;;5.60;99.90;;;;;;5086656;28;20418;-73
2021/01/21 04:48:48;;;;;;;3.92;3.20;;;5.40;99.90;;;;;;5078599;28;20719;-74
2021/01/21 04:51:16;;;;;;;3.70;3.20;;;5.50;99.90;;;;;;5084366;28;20374;-74
2021/01/21 04:53:50;;;;;;;4.38;3.20;;;5.20;99.90;;;;;;5078732;28;20421;-74
2021/01/21 04:56:24;;;;;;;4.63;3.60;;;5.40;99.90;;;;;;5075878;28;20424;-75
2021/01/21 04:58:54;;;;;;;4.70;3.40;;;5.50;99.90;;;;;;5070092;28;20502;-74
2021/01/21 05:01:20;;;;;;;4.28;3.47;;;5.10;99.90;;;;;;5070019;28;20477;-74
2021/01/21 05:03:46;;;;;;;5.17;3.80;;;5.40;99.90;;;;;;5088616;28;20402;-74
2021/01/21 05:06:13;;;;;;;5.30;3.95;;;5.50;99.90;;;;;;5078444;28;20387;-74
2021/01/21 05:08:40;;;;;;;4.67;3.93;;;4.90;99.90;;;;;;5075218;28;20390;-74
2021/01/21 05:11:06;;;;;;;6.50;4.15;;;5.10;99.90;;;;;;5077389;28;20777;-73
2021/01/21 05:13:32;;;;;;;5.43;4.00;;;;;;;;;;5083497;28;20384;-73
2021/01/21 05:15:58;;;;;;;5.20;4.05;;;;;;;;;;5069583;28;20425;-74
2021/01/21 05:18:34;;;;;;;5.50;4.20;;;5.20;99.90;;;;;;5069318;28;20383;-74
2021/01/21 05:21:00;;;;;;;5.57;4.10;;;5.60;99.90;;;;;;5069355;28;20428;-74
2021/01/21 05:23:27;;;;;;;4.53;4.03;;;5.20;99.90;;;;;;5069166;28;20384;-73
2021/01/21 05:25:52;;;;;;;5.35;4.00;;;5.10;99.90;;;;;;5069556;28;20383;-73
2021/01/21 05:28:19;;;;;;;6.90;4.25;;;5.00;99.90;;;;;;5069489;28;20449;-74
2021/01/21 05:30:48;;;;;;;5.50;4.43;;;4.90;99.90;;;;;;5082619;28;20374;-74
2021/01/21 05:33:15;;;;;;;5.20;4.00;;;4.90;99.90;;;;;;5076815;28;20381;-74
2021/01/21 05:35:42;;;;;;;6.45;4.40;;;;;;;;;;5088487;28;20382;-74
2021/01/21 05:38:08;;;;;;;5.00;4.10;;;4.80;99.90;;;;;;5068892;28;20876;-74
2021/01/21 05:40:35;;;;;;;5.85;4.07;;;4.80;99.90;;;;;;5069296;28;20387;-74
2021/01/21 05:43:02;;;;;;;8.20;4.30;;;4.70;99.90;;;;;;5068812;28;20408;-74
2021/01/21 05:45:27;;;;;;;7.88;3.97;;;4.80;99.90;;;;;;5068898;28;20404;-74
2021/01/21 05:47:54;;;;;;;7.40;3.93;;;4.90;99.90;;;;;;5069092;28;20390;-73
2021/01/21 05:50:20;;;;;;;5.28;3.80;;;4.70;99.90;;;;;;5068921;28;20382;-73
2021/01/21 05:52:46;;;;;;;6.18;4.10;;;4.80;99.90;;;;;;5069090;28;20390;-73
2021/01/21 05:55:12;;;;;;;4.93;3.60;;;4.90;99.90;;;;;;5069985;28;20376;-74
2021/01/21 05:57:38;;;;;;;5.73;3.97;;;;;;;;;;5081575;28;20467;-74
2021/01/21 06:00:05;;;;;;;6.03;3.85;;;4.70;99.90;;;;;;5069473;28;20483;-74
2021/01/21 06:02:32;;;;;;;5.57;3.85;;;4.90;99.90;;;;;;5079879;28;20494;-74
2021/01/21 06:05:01;;;;;;;5.00;3.60;;;;;;;;;;5069842;28;20482;-74
2021/01/21 06:07:34;;;;;;;5.78;4.05;;;;;;;;;;5088675;28;20381;-73
2021/01/21 06:09:59;;;;;;;6.23;4.10;;;5.10;99.90;;;;;;5084299;28;20376;-74
2021/01/21 06:12:29;;;;;;;6.40;4.28;;;;;;;;;;5068143;28;20395;-73
2021/01/21 06:14:59;;;;;;;4.80;4.10;;;5.20;99.90;;;;;;5068347;28;20796;-74
2021/01/21 06:17:26;;;;;;;6.80;4.83;;;;;;;;;;5068598;28;20384;-73
2021/01/21 06:19:52;;;;;;;14.65;9.68;;;;;;;;;;5068495;28;20383;-74
2021/01/21 06:22:20;;;;;;;21.92;14.02;;;;;;;;;;5068072;28;20375;-73
2021/01/21 06:24:46;;;;;;;7.50;4.50;;;;;;;;;;5086343;28;20441;-73
2021/01/21 06:27:15;;;;;;;12.82;7.43;;;5.60;99.90;;;;;;5088573;28;20936;-73
2021/01/21 06:29:45;;;;;;;6.60;4.60;;;5.50;99.90;;;;;;5088629;28;20864;-73
2021/01/21 06:32:12;;;;;;;5.53;4.00;;;;;;;;;;5088397;28;20393;-73
2021/01/21 06:34:39;;;;;;;5.80;3.90;;;5.40;99.90;;;;;;5088345;28;20405;-73
2021/01/21 06:37:14;;;;;;;5.25;3.97;;;5.30;99.90;;;;;;5088468;28;20378;-73
2021/01/21 06:39:53;;;;;;;5.00;3.78;;;5.60;99.90;;;;;;5088402;28;20443;-73
2021/01/21 06:42:27;;;;;;;5.47;4.65;;;5.40;99.90;;;;;;5087990;28;20405;-73
2021/01/21 06:44:55;;;;;;;6.70;4.20;;;5.60;99.90;;;;;;5088480;28;20756;-73
2021/01/21 06:47:21;;;;;;;8.53;4.37;;;;;;;;;;5088187;28;20382;-74
2021/01/21 06:49:47;;;;;;;5.57;4.07;;;;;;;;;;5087646;28;20378;-73
2021/01/21 06:52:14;;;;;;;7.00;4.33;;;;;;;;;;5087889;28;20377;-73
2021/01/21 06:54:40;;;;;;;9.20;4.72;;;;;;;;;;5088285;28;20382;-73
2021/01/21 06:57:35;;;;;;;7.13;4.60;;;5.60;99.90;;;;;;5088287;28;20385;-73
2021/01/21 07:00:01;;;;;;;5.15;3.80;;;;;;;;;;5088115;28;20374;-73
2021/01/21 07:02:45;;;;;;;5.22;3.83;;;5.20;99.90;;;;;;5087854;28;20459;-73
2021/01/21 07:05:13;;;;;;;5.90;3.80;;;;;;;;;;5087919;28;20398;-73
2021/01/21 07:07:56;;;;;;;5.35;3.75;;;5.20;99.90;;;;;;5088145;28;20453;-73
2021/01/21 07:10:41;;;;;;;4.63;3.58;;;4.90;99.90;;;;;;5080723;28;20391;-73
2021/01/21 07:13:15;;;;;;;6.63;4.38;;;5.50;99.90;;;;;;5067703;28;20433;-73
2021/01/21 07:15:48;;;;;;;6.32;4.65;;;5.40;99.90;;;;;;5067847;28;20487;-73
2021/01/21 07:18:19;;;;;;;7.03;5.20;;;;;;;;;;5065408;28;20471;-73
2021/01/21 07:20:59;;;;;;;3.92;3.38;;;5.40;99.90;;;;;;5067838;28;20458;-73
2021/01/21 07:23:50;;;;;;;4.45;3.40;;;5.60;99.90;;;;;;5067721;28;20376;-73
2021/01/21 07:26:19;;;;;;;6.63;3.65;;;;;;;;;;5067517;28;20896;-73
2021/01/21 07:28:55;;;;;;;4.37;3.30;;;5.60;99.90;;;;;;5068030;28;20387;-73
2021/01/21 07:31:21;;;;;;;5.40;3.63;;;5.50;99.90;;;;;;5067473;28;20407;-73
2021/01/21 07:33:47;;;;;;;7.10;3.77;;;5.80;99.90;;;;;;5067874;28;20399;-73
2021/01/21 07:36:29;;;;;;;4.83;3.63;;;5.30;99.90;;;;;;5067647;28;20391;-73
2021/01/21 07:38:55;;;;;;;5.35;4.03;;;5.50;99.90;;;;;;5067854;28;20714;-73
2021/01/21 07:41:42;;;;;;;5.83;4.53;;;6.20;99.90;;;;;;5067514;28;20394;-73
2021/01/21 07:44:08;;;;;;;8.93;4.22;;;;;;;;;;5067564;28;20456;-75
2021/01/21 07:46:34;;;;;;;5.65;3.70;;;;;;;;;;5067941;28;20446;-73
2021/01/21 07:49:27;;;;;;;4.70;3.70;;;5.40;99.90;;;;;;5067867;28;20372;-73
2021/01/21 07:52:00;;;;;;;3.90;3.20;;;;;;;;;;5066594;28;20376;-73
2021/01/21 07:54:27;;;;;;;5.75;3.60;;;6.00;99.90;;;;;;5067194;28;20472;-73
2021/01/21 07:56:53;;;;;;;5.93;4.10;;;5.80;99.90;;;;;;5067605;28;20384;-73
2021/01/21 07:59:19;;;;;;;7.72;4.25;;;;;;;;;;5067716;28;20394;-73
2021/01/21 08:01:59;;;;;;;8.13;4.82;;;5.80;99.90;;;;;;5070470;28;20745;-72
2021/01/21 08:04:25;;;;;;;10.85;4.68;;;;;;;;;;5070847;28;20403;-73
2021/01/21 08:06:55;;;;;;;3.73;3.13;;;5.30;99.90;;;;;;5070986;28;20379;-73
2021/01/21 08:09:21;;;;;;;5.32;3.40;;;;;;;;;;5070079;28;20386;-73
2021/01/21 08:11:48;;;;;;;4.13;3.53;;;5.70;99.90;;;;;;5070771;28;20384;-73
2021/01/21 08:14:15;;;;;;;7.70;3.28;;;5.70;99.90;;;;;;5070128;28;20386;-73
2021/01/21 08:16:41;;;;;;;5.40;3.55;;;6.00;99.90;;;;;;5070509;28;20395;-73
2021/01/21 08:19:07;;;;;;;5.25;3.45;;;;;;;;;;5070712;28;20384;-74
2021/01/21 08:21:33;;;;;;;5.25;3.67;;;5.70;99.90;;;;;;5074942;28;20427;-73
2021/01/21 08:24:01;;;;;;;6.43;3.80;;;5.90;99.90;;;;;;5090700;28;20394;-73
2021/01/21 08:26:31;;;;;;;4.22;3.20;;;6.10;99.90;;;;;;5090820;28;21186;-73
2021/01/21 08:28:57;;;;;;;5.23;3.53;;;;;;;;;;5090754;28;20748;-73
2021/01/21 08:31:43;;;;;;;5.60;3.55;;;6.00;99.90;;;;;;5090159;28;20415;-73
2021/01/21 08:34:21;;;;;;;7.35;4.15;;;5.80;99.90;;;;;;5090466;28;20391;-73
2021/01/21 08:36:47;;;;;;;6.30;4.10;;;;;;;;;;5090683;28;20794;-73
2021/01/21 08:39:13;;;;;;;10.20;6.03;;;5.70;99.90;;;;;;5090496;28;20409;-73
2021/01/21 08:41:41;;;;;;;6.18;3.97;;;;;;;;;;5090222;28;20414;-74
2021/01/21 08:44:13;;;;;;;6.13;3.72;;;6.00;99.90;;;;;;5090284;28;20394;-73
2021/01/21 08:46:38;;;;;;;7.10;3.42;;;5.70;99.90;;;;;;5090485;28;20385;-73
2021/01/21 08:49:08;;;;;;;5.57;3.47;;;6.10;99.90;;;;;;5090317;28;20473;-73
2021/01/21 08:51:41;;;;;;;8.10;3.45;;;5.90;99.90;;;;;;5090061;28;20385;-73
2021/01/21 08:54:20;;;;;;;5.03;3.30;;;6.30;99.90;;;;;;5090153;28;20868;-73
2021/01/21 08:57:20;;;;;;;4.37;3.10;;;6.00;99.90;;;;;;5090045;28;20382;-73
2021/01/21 08:59:46;;;;;;;3.70;2.90;;;6.10;99.90;;;;;;5090019;28;20413;-73
2021/01/21 09:02:12;;;;;;;5.10;3.10;;;;;;;;;;5089853;28;20413;-73
2021/01/21 09:04:39;;;;;;;4.35;3.03;;;;;;;;;;5089910;28;20433;-73
2021/01/21 09:07:06;;;;;;;4.55;3.00;;;6.50;99.90;;;;;;5089921;28;20374;-73
2021/01/21 09:09:33;;;;;;;13.43;3.38;;;6.40;99.90;;;;;;5089459;28;20378;-73
2021/01/21 09:12:18;;;;;;;6.63;3.05;;;6.70;99.90;;;;;;5068781;28;20380;-73
2021/01/21 09:14:58;;;;;;;3.80;2.70;;;6.80;99.90;;;;;;5069371;28;21067;-73
2021/01/21 09:17:25;;;;;;;4.78;3.00;;;;;;;;;;5069597;28;21025;-74
2021/01/21 09:19:51;;;;;;;4.45;2.90;;;;;;;;;;5069493;28;20909;-73
2021/01/21 09:22:18;;;;;;;4.97;3.30;;;7.10;99.90;;;;;;5069174;28;20746;-73
2021/01/21 09:24:59;;;;;;;3.17;2.70;;;7.00;99.90;;;;;;5069118;28;20494;-73
2021/01/21 09:27:27;;;;;;;3.92;3.08;;;;;;;;;;5069031;28;20486;-74
2021/01/21 09:30:06;;;;;;;5.03;3.35;;;6.80;99.90;;;;;;5069330;28;20379;-73
2021/01/21 09:32:33;;;;;;;6.25;3.45;;;;;;;;;;5068726;28;20398;-73
2021/01/21 09:35:06;;;;;;;7.75;4.55;;;7.10;99.90;;;;;;5069021;28;20382;-74
2021/01/21 09:37:55;;;;;;;7.50;4.23;;;6.90;99.90;;;;;;5068803;28;20388;-74
2021/01/21 09:40:22;;;;;;;5.68;4.25;;;6.90;99.90;;;;;;5069069;28;20453;-73
2021/01/21 09:42:49;;;;;;;4.53;3.10;;;7.20;99.90;;;;;;5068714;28;20862;-74
2021/01/21 09:45:16;;;;;;;5.85;3.20;;;6.90;99.90;;;;;;5068818;28;20411;-74
2021/01/21 09:47:42;;;;;;;4.38;2.97;;;6.80;99.90;;;;;;5068597;28;20441;-74
2021/01/21 09:50:08;;;;;;;6.57;3.87;;;;;;;;;;5068622;28;20376;-74
2021/01/21 09:52:34;;;;;;;6.22;3.70;;;7.00;99.90;;;;;;5068458;28;20380;-73
2021/01/21 09:55:00;;;;;;;5.72;3.92;;;6.90;99.90;;;;;;5069015;28;20388;-74
2021/01/21 09:57:27;;;;;;;5.40;3.20;;;;;;;;;;5068568;28;20807;-74
2021/01/21 09:59:53;;;;;;;5.18;3.17;;;7.60;99.90;;;;;;5068670;28;20380;-73
2021/01/21 10:02:19;;;;;;;4.23;3.03;;;7.10;99.90;;;;;;5068122;28;20388;-73
2021/01/21 10:04:44;;;;;;;3.53;2.70;;;7.50;99.90;;;;;;5081316;28;20405;-73
2021/01/21 10:07:11;;;;;;;8.10;3.30;;;7.50;99.90;;;;;;5088958;28;20382;-73
2021/01/21 10:09:37;;;;;;;4.57;3.67;;;7.70;99.90;;;;;;5087774;28;20382;-73
2021/01/21 10:12:04;;;;;;;3.80;2.80;;;7.80;99.90;;;;;;5068313;28;20383;-73
2021/01/21 10:14:29;;;;;;;4.35;2.90;;;7.90;99.90;;;;;;5068375;28;20444;-73
2021/01/21 10:16:56;;;;;;;4.13;2.53;;;;;;;;;;5068226;28;20490;-73
2021/01/21 10:19:22;;;;;;;3.65;2.90;;;;;;;;;;5068469;28;20415;-73
2021/01/21 10:21:48;;;;;;;4.05;2.70;;;;;;;;;;5068270;28;20873;-74
2021/01/21 10:24:14;;;;;;;2.97;2.38;;;8.10;99.90;;;;;;5067167;28;20428;-73
2021/01/21 10:26:39;;;;;;;5.30;2.70;;;8.40;99.90;;;;;;5068170;28;20402;-74
2021/01/21 10:29:06;;;;;;;4.05;2.40;;;8.40;99.90;;;;;;5068324;28;20793;-74
2021/01/21 10:31:32;;;;;;;3.55;2.83;;;;;;;;;;5068084;28;21041;-73
2021/01/21 10:33:58;;;;;;;4.30;2.60;;;7.70;99.90;;;;;;5068189;28;20459;-74
2021/01/21 10:36:24;;;;;;;4.20;2.70;;;7.80;99.90;;;;;;5068138;28;20760;-74
2021/01/21 10:38:50;;;;;;;5.23;2.77;;;;;;;;;;5068128;28;20452;-74
2021/01/21 10:41:15;;;;;;;5.55;2.85;;;8.20;99.90;;;;;;5067963;28;20415;-74
2021/01/21 10:43:42;;;;;;;5.35;3.10;;;;;;;;;;5068054;28;20407;-74
2021/01/21 10:46:07;;;;;;;4.00;2.33;;;7.90;99.90;;;;;;5067894;28;20379;-73
2021/01/21 10:48:33;;;;;;;4.97;2.77;;;8.50;99.90;;;;;;5068082;28;20746;-74
2021/01/21 10:50:59;;;;;;;4.60;2.80;;;;;;;;;;5067922;28;20470;-73
2021/01/21 10:53:25;;;;;;;5.05;2.70;;;;;;;;;;5067972;28;20382;-74
2021/01/21 10:55:51;;;;;;;3.38;2.47;;;;;;;;;;5068036;28;20383;-74
2021/01/21 10:58:17;;;;;;;5.90;3.00;;;8.00;99.90;;;;;;5068203;28;20371;-74
2021/01/21 11:00:46;;;;;;;4.97;2.60;;;7.80;99.90;;;;;;5067768;28;20456;-74
2021/01/21 11:03:13;;;;;;;4.38;2.13;;;7.90;99.90;;;;;;5067912;28;20419;-73
2021/01/21 11:05:41;;;;;;;3.97;2.30;;;8.00;99.90;;;;;;5067783;28;20427;-73
2021/01/21 11:08:07;;;;;;;5.03;2.40;;;8.10;99.90;;;;;;5073216;28;20393;-73
2021/01/21 11:10:33;;;;;;;4.65;2.40;;;8.10;99.90;;;;;;5078136;28;20388;-73
2021/01/21 11:12:59;;;;;;;4.57;2.83;;;8.00;99.90;;;;;;5080190;28;20429;-73
2021/01/21 11:15:24;;;;;;;6.13;3.37;;;8.40;99.90;;;;;;5076165;28;20431;-73
2021/01/21 11:17:51;;;;;;;7.30;3.60;;;;;;;;;;5078182;28;20501;-73
2021/01/21 11:20:17;;;;;;;8.10;4.57;;;8.20;99.90;;;;;;5083369;28;20803;-73
2021/01/21 11:22:42;;;;;;;7.35;3.88;;;8.70;99.90;;;;;;5077359;28;20473;-73
2021/01/21 11:25:09;;;;;;;9.55;4.00;;;8.60;99.90;;;;;;5081178;28;20406;-73
2021/01/21 11:27:36;;;;;;;7.73;4.50;;;8.30;99.90;;;;;;5079410;28;21021;-73
2021/01/21 11:30:09;;;;;;;10.15;4.70;;;9.00;99.90;;;;;;5078959;28;20752;-73
2021/01/21 11:32:35;;;;;;;7.55;4.20;;;8.50;99.90;;;;;;5078377;28;20827;-73
2021/01/21 11:35:02;;;;;;;7.97;4.23;;;9.20;99.90;;;;;;5080349;28;20401;-73
2021/01/21 11:37:28;;;;;;;7.70;3.53;;;9.00;99.90;;;;;;5081094;28;20394;-73
2021/01/21 11:39:54;;;;;;;8.13;4.87;;;9.20;99.90;;;;;;5083041;28;20386;-74
2021/01/21 11:42:20;;;;;;;6.82;2.90;;;9.40;99.90;;;;;;5080031;28;20783;-73
2021/01/21 11:44:46;;;;;;;5.30;3.22;;;9.50;99.90;;;;;;5079384;28;20411;-73
2021/01/21 11:47:13;;;;;;;3.85;2.25;;;;;;;;;;5079482;28;20367;-73
2021/01/21 11:49:38;;;;;;;6.05;2.42;;;9.00;99.90;;;;;;5082049;28;20773;-73
2021/01/21 11:52:04;;;;;;;4.78;2.65;;;9.30;99.90;;;;;;5082216;28;20383;-74
2021/01/21 11:54:30;;;;;;;2.90;2.17;;;9.40;99.90;;;;;;5087427;28;20759;-73
2021/01/21 11:56:56;;;;;;;4.32;2.42;;;;;;;;;;5079115;28;20384;-73
2021/01/21 11:59:21;;;;;;;5.75;3.10;;;8.90;99.90;;;;;;5086634;28;20449;-73
2021/01/21 12:01:47;;;;;;;4.50;2.40;;;;;;;;;;5080049;28;20475;-73
2021/01/21 12:04:13;;;;;;;4.00;2.20;;;9.10;99.90;;;;;;5084026;28;20401;-73
2021/01/21 12:06:39;;;;;;;3.53;2.28;;;8.60;99.90;;;;;;5079175;28;20441;-73
2021/01/21 12:09:05;;;;;;;4.20;2.20;;;9.00;99.90;;;;;;5081893;28;20438;-73
2021/01/21 12:11:31;;;;;;;3.17;2.17;;;9.10;99.90;;;;;;5080874;28;20394;-73
2021/01/21 12:13:57;;;;;;;5.72;2.50;;;8.60;99.90;;;;;;5082329;28;20481;-73
2021/01/21 12:16:22;;;;;;;3.75;2.60;;;9.40;99.90;;;;;;5076783;28;20387;-73
2021/01/21 12:18:48;;;;;;;3.30;2.20;;;9.30;99.90;;;;;;5082239;28;20382;-73
2021/01/21 12:21:14;;;;;;;4.55;2.72;;;8.90;99.90;;;;;;5079741;28;20776;-73
2021/01/21 12:23:40;;;;;;;6.20;3.20;;;8.50;99.90;;;;;;5081258;28;20902;-73
2021/01/21 12:26:08;;;;;;;6.82;3.40;;;9.00;99.90;;;;;;5087567;28;20746;-73
2021/01/21 12:28:34;;;;;;;5.95;3.50;;;8.60;99.90;;;;;;5080556;28;20733;-73
2021/01/21 12:31:00;;;;;;;8.32;4.90;;;9.00;99.90;;;;;;5083261;28;20411;-73
2021/01/21 12:33:26;;;;;;;8.43;5.22;;;8.60;99.90;;;;;;5078001;28;20411;-73
2021/01/21 12:35:52;;;;;;;6.63;3.75;;;;;;;;;;5083167;28;20947;-73
2021/01/21 12:38:18;;;;;;;4.25;2.60;;;8.50;99.90;;;;;;5086645;28;20385;-73
2021/01/21 12:40:43;;;;;;;4.97;2.30;;;8.80;99.90;;;;;;5078576;28;20445;-73
2021/01/21 12:43:09;;;;;;;3.78;2.17;;;;;;;;;;5082765;28;20382;-77
2021/01/21 12:45:35;;;;;;;2.45;2.00;;;;;;;;;;5079428;28;20910;-73
2021/01/21 12:48:01;;;;;;;4.05;2.40;;;8.70;99.90;;;;;;5081070;28;20451;-73
2021/01/21 12:50:26;;;;;;;6.38;2.58;;;8.70;99.90;;;;;;5079538;28;20782;-74
2021/01/21 12:52:52;;;;;;;5.80;3.70;;;8.60;99.90;;;;;;5070367;28;20908;-75
2021/01/21 12:55:18;;;;;;;8.80;3.20;;;;;;;;;;5084914;28;20390;-74
2021/01/21 12:57:43;;;;;;;7.95;3.80;;;8.90;99.90;;;;;;5090148;28;20378;-73
2021/01/21 13:00:09;;;;;;;9.27;3.30;;;8.90;99.90;;;;;;5089937;28;20389;-74
2021/01/21 13:02:38;;;;;;;5.63;3.10;;;8.60;99.90;;;;;;5089754;28;20468;-74
2021/01/21 13:05:05;;;;;;;3.42;2.00;;;8.50;99.90;;;;;;5089939;28;20759;-74
2021/01/21 13:07:31;;;;;;;3.60;2.17;;;;;;;;;;5089957;28;20374;-74
2021/01/21 13:09:56;;;;;;;3.85;1.98;;;8.90;99.90;;;;;;5085809;28;20813;-74
2021/01/21 13:12:23;;;;;;;7.40;2.00;;;;;;;;;;5069292;28;20742;-74
2021/01/21 13:14:49;;;;;;;3.72;1.80;;;8.80;99.90;;;;;;5069094;28;20411;-74
2021/01/21 13:17:15;;;;;;;2.95;1.67;;;8.70;99.90;;;;;;5069513;28;20554;-74
2021/01/21 13:19:42;;;;;;;1.90;1.00;;;8.90;99.90;;;;;;5069402;28;20475;-74
2021/01/21 13:22:07;;;;;;;3.85;1.30;;;9.20;99.90;;;;;;5069233;28;20371;-74
2021/01/21 13:24:33;;;;;;;2.20;1.23;;;9.30;99.90;;;;;;5068413;28;20411;-73
2021/01/21 13:26:59;;;;;;;3.50;1.45;;;9.40;99.90;;;;;;5079140;28;20382;-73
2021/01/21 13:29:25;;;;;;;2.90;1.55;;;;;;;;;;5070774;28;20392;-73
2021/01/21 13:31:51;;;;;;;3.53;1.50;;;9.20;99.90;;;;;;5079451;28;21004;-73
2021/01/21 13:34:17;;;;;;;5.28;2.80;;;9.70;99.90;;;;;;5089191;28;20422;-73